createdAt,value
2022-08-29T00:02:06.672Z,5.15
2022-08-29T00:04:53.132Z,4.70
2022-08-29T00:07:39.605Z,4.30
2022-08-29T00:10:26.131Z,4.10
2022-08-29T00:13:13.760Z,4.10
2022-08-29T00:15:59.318Z,4.15
2022-08-29T00:18:45.279Z,4.38
2022-08-29T00:21:30.944Z,4.78
2022-08-29T00:24:17.042Z,4.43
2022-08-29T00:27:02.096Z,4.25
2022-08-29T00:29:47.519Z,4.38
2022-08-29T00:32:35.141Z,4.05
2022-08-29T00:35:25.157Z,4.05
2022-08-29T00:38:12.560Z,4.43
2022-08-29T00:40:58.792Z,4.30
2022-08-29T00:43:44.265Z,3.72
2022-08-29T00:46:37.459Z,3.88
2022-08-29T00:49:39.059Z,3.95
2022-08-29T00:52:39.496Z,4.27
2022-08-29T00:55:28.981Z,3.42
2022-08-29T00:58:24.663Z,4.82
2022-08-29T01:01:10.481Z,4.07
2022-08-29T01:03:56.175Z,3.53
2022-08-29T01:06:43.100Z,3.42
2022-08-29T01:09:29.640Z,3.55
2022-08-29T01:12:18.316Z,3.47
2022-08-29T01:15:09.068Z,3.15
2022-08-29T01:17:55.411Z,3.60
2022-08-29T01:21:05.769Z,3.05
2022-08-29T01:24:10.607Z,3.05
2022-08-29T01:26:56.771Z,2.53
2022-08-29T01:29:41.906Z,2.58
2022-08-29T01:32:27.318Z,2.83
2022-08-29T01:35:13.318Z,3.20
2022-08-29T01:37:58.696Z,3.22
2022-08-29T01:40:43.965Z,2.75
2022-08-29T01:43:31.297Z,2.92
2022-08-29T01:46:21.161Z,2.72
2022-08-29T01:49:09.015Z,2.15
2022-08-29T01:51:54.318Z,2.33
2022-08-29T01:54:44.991Z,2.38
2022-08-29T01:57:30.260Z,4.60
2022-08-29T02:00:17.640Z,2.70
2022-08-29T02:03:03.223Z,2.40
2022-08-29T02:05:48.472Z,2.60
2022-08-29T02:08:34.119Z,2.38
2022-08-29T02:11:19.663Z,2.10
2022-08-29T02:14:05.145Z,1.80
2022-08-29T02:16:50.969Z,2.10
2022-08-29T02:19:37.363Z,2.30
2022-08-29T02:22:22.361Z,2.25
2022-08-29T02:25:28.556Z,3.55
2022-08-29T02:28:16.413Z,2.53
2022-08-29T02:31:03.250Z,2.20
2022-08-29T02:33:49.375Z,2.63
2022-08-29T02:36:35.364Z,2.40
2022-08-29T02:39:20.492Z,2.00
2022-08-29T02:42:06.061Z,2.60
2022-08-29T02:44:51.420Z,2.03
2022-08-29T02:47:36.822Z,2.17
2022-08-29T02:50:25.139Z,2.30
2022-08-29T02:53:11.784Z,2.55
2022-08-29T02:55:57.667Z,2.10
2022-08-29T02:58:43.151Z,2.10
2022-08-29T03:01:28.339Z,2.03
2022-08-29T03:04:13.561Z,2.47
2022-08-29T03:06:58.969Z,2.78
2022-08-29T03:09:44.318Z,2.40
2022-08-29T03:12:30.053Z,1.83
2022-08-29T03:15:17.957Z,1.92
2022-08-29T03:18:03.633Z,2.33
2022-08-29T03:20:48.867Z,2.30
2022-08-29T03:23:34.728Z,2.30
2022-08-29T03:26:20.534Z,2.40
2022-08-29T03:29:06.328Z,2.58
2022-08-29T03:31:51.403Z,2.10
2022-08-29T03:34:36.833Z,2.50
2022-08-29T03:37:22.151Z,2.40
2022-08-29T03:40:10.361Z,2.58
2022-08-29T03:42:56.197Z,2.15
2022-08-29T03:45:41.771Z,2.45
2022-08-29T03:48:26.935Z,2.47
2022-08-29T03:51:12.412Z,2.53
2022-08-29T03:53:58.349Z,2.42
2022-08-29T03:56:43.924Z,2.28
2022-08-29T03:59:29.828Z,2.22
2022-08-29T04:02:15.635Z,2.40
2022-08-29T04:05:09.989Z,2.28
2022-08-29T04:07:58.395Z,1.95
2022-08-29T04:10:43.835Z,2.03
2022-08-29T04:13:29.237Z,2.20
2022-08-29T04:16:19.612Z,2.20
2022-08-29T04:19:05.022Z,2.33
2022-08-29T04:21:54.683Z,1.80
2022-08-29T04:24:39.916Z,2.22
2022-08-29T04:27:25.245Z,2.17
2022-08-29T04:30:16.995Z,2.17
2022-08-29T04:33:02.548Z,2.28
2022-08-29T04:35:48.645Z,2.28
2022-08-29T04:38:33.592Z,1.88
2022-08-29T04:41:19.388Z,2.20
2022-08-29T04:44:06.033Z,2.50
2022-08-29T04:46:51.432Z,2.88
2022-08-29T04:49:36.830Z,2.33
2022-08-29T04:52:22.871Z,2.38
2022-08-29T04:55:09.731Z,2.38
2022-08-29T04:57:58.646Z,2.35
2022-08-29T05:00:45.923Z,2.42
2022-08-29T05:03:32.513Z,2.08
2022-08-29T05:06:22.446Z,2.00
2022-08-29T05:09:08.334Z,3.17
2022-08-29T05:11:53.511Z,2.22
2022-08-29T05:14:39.955Z,2.50
2022-08-29T05:17:26.176Z,2.47
2022-08-29T05:20:12.256Z,2.17
2022-08-29T05:22:57.756Z,2.05
2022-08-29T05:25:43.701Z,2.95
2022-08-29T05:28:31.447Z,2.78
2022-08-29T05:31:17.379Z,2.78
2022-08-29T05:34:32.047Z,2.38
2022-08-29T05:37:14.747Z,3.25
2022-08-29T05:40:00.188Z,2.40
2022-08-29T05:42:45.539Z,2.90
2022-08-29T05:45:30.837Z,2.53
2022-08-29T05:48:18.283Z,3.35
2022-08-29T05:51:03.721Z,2.72
2022-08-29T05:53:48.867Z,2.40
2022-08-29T05:56:34.950Z,2.17
2022-08-29T05:59:20.384Z,2.65
2022-08-29T06:02:07.125Z,2.45
2022-08-29T06:04:52.834Z,2.20
2022-08-29T06:07:38.378Z,2.30
2022-08-29T06:10:23.536Z,2.67
2022-08-29T06:13:09.114Z,2.38
2022-08-29T06:15:54.471Z,2.45
2022-08-29T06:18:40.374Z,2.65
2022-08-29T06:21:26.214Z,2.50
2022-08-29T06:24:12.056Z,2.85
2022-08-29T06:26:57.442Z,2.63
2022-08-29T06:29:43.159Z,2.30
2022-08-29T06:32:28.928Z,3.35
2022-08-29T06:35:14.247Z,2.50
2022-08-29T06:37:59.768Z,2.30
2022-08-29T06:40:45.139Z,2.58
2022-08-29T06:43:30.765Z,3.17
2022-08-29T06:46:37.094Z,2.63
2022-08-29T06:49:23.046Z,2.50
2022-08-29T06:52:08.315Z,2.72
2022-08-29T06:54:53.739Z,2.60
2022-08-29T06:57:45.478Z,2.45
2022-08-29T07:00:31.365Z,2.58
2022-08-29T07:03:16.838Z,3.38
2022-08-29T07:06:02.823Z,2.55
2022-08-29T07:08:55.708Z,2.40
2022-08-29T07:11:42.690Z,2.38
2022-08-29T07:14:27.796Z,2.58
2022-08-29T07:17:25.582Z,3.42
2022-08-29T07:20:11.785Z,2.50
2022-08-29T07:22:57.165Z,2.85
2022-08-29T07:25:42.556Z,2.92
2022-08-29T07:28:30.760Z,2.92
2022-08-29T07:31:20.163Z,2.80
2022-08-29T07:34:06.201Z,2.55
2022-08-29T07:36:51.367Z,2.97
2022-08-29T07:39:37.664Z,2.95
2022-08-29T07:42:23.280Z,3.45
2022-08-29T07:45:10.449Z,2.70
2022-08-29T07:47:55.929Z,3.30
2022-08-29T07:50:44.395Z,3.05
2022-08-29T07:53:29.790Z,3.15
2022-08-29T07:56:22.696Z,2.35
2022-08-29T07:59:10.099Z,3.03
2022-08-29T08:01:55.468Z,2.63
2022-08-29T08:04:41.009Z,3.17
2022-08-29T08:07:29.884Z,2.63
2022-08-29T08:10:17.610Z,3.45
2022-08-29T08:13:02.725Z,3.65
2022-08-29T08:15:48.647Z,3.58
2022-08-29T08:18:36.886Z,2.88
2022-08-29T08:21:23.609Z,3.20
2022-08-29T08:24:09.500Z,2.90
2022-08-29T08:26:54.890Z,2.80
2022-08-29T08:29:40.355Z,3.03
2022-08-29T08:32:32.194Z,2.45
2022-08-29T08:38:11.718Z,2.42
2022-08-29T08:41:06.960Z,2.50
2022-08-29T08:43:55.767Z,2.78
2022-08-29T08:46:47.757Z,3.08
2022-08-29T08:49:51.651Z,3.00
2022-08-29T08:52:48.388Z,2.53
2022-08-29T08:55:42.969Z,2.65
2022-08-29T08:58:56.423Z,2.67
2022-08-29T09:01:48.064Z,2.50
2022-08-29T09:05:11.217Z,2.80
2022-08-29T09:08:04.726Z,2.85
2022-08-29T09:10:59.203Z,2.55
2022-08-29T09:14:05.522Z,2.60
2022-08-29T09:16:56.510Z,2.85
2022-08-29T09:19:42.823Z,2.88
2022-08-29T09:22:33.124Z,2.70
2022-08-29T09:25:18.431Z,2.88
2022-08-29T09:28:08.425Z,3.13
2022-08-29T09:31:24.110Z,3.13
2022-08-29T09:34:50.572Z,2.78
2022-08-29T09:37:38.281Z,3.03
2022-08-29T09:40:23.941Z,3.30
2022-08-29T09:43:16.546Z,2.95
2022-08-29T09:46:11.711Z,2.80
2022-08-29T09:49:00.235Z,2.97
2022-08-29T09:51:49.180Z,2.78
2022-08-29T09:54:34.760Z,2.85
2022-08-29T09:57:29.228Z,2.88
2022-08-29T10:00:23.663Z,3.00
2022-08-29T10:03:23.640Z,2.63
2022-08-29T10:06:19.989Z,3.42
2022-08-29T10:09:12.625Z,3.13
2022-08-29T10:12:03.367Z,2.83
2022-08-29T10:14:56.245Z,2.55
2022-08-29T10:18:07.378Z,2.97
2022-08-29T10:21:07.905Z,2.78
2022-08-29T10:24:19.496Z,2.72
2022-08-29T10:27:16.375Z,3.05
2022-08-29T10:30:11.086Z,2.88
2022-08-29T10:33:04.621Z,2.97
2022-08-29T10:35:57.922Z,3.40
2022-08-29T10:39:19.210Z,2.80
2022-08-29T10:42:16.427Z,2.47
2022-08-29T10:45:15.192Z,2.70
2022-08-29T10:48:11.520Z,2.60
2022-08-29T10:51:32.208Z,2.60
2022-08-29T10:54:22.981Z,2.60
2022-08-29T10:57:10.129Z,2.75
2022-08-29T11:00:09.349Z,3.30
2022-08-29T11:03:22.837Z,2.97
2022-08-29T11:06:28.709Z,2.25
2022-08-29T11:09:29.062Z,2.58
2022-08-29T11:12:50.527Z,3.35
2022-08-29T11:15:52.606Z,2.78
2022-08-29T11:21:49.899Z,2.70
2022-08-29T11:24:38.156Z,2.80
2022-08-29T11:27:48.000Z,2.15
2022-08-29T11:31:15.406Z,2.67
2022-08-29T11:34:22.435Z,3.20
2022-08-29T11:37:55.544Z,2.70
2022-08-29T11:41:26.957Z,4.97
2022-08-29T11:44:19.669Z,2.35
2022-08-29T11:47:33.823Z,3.30
2022-08-29T11:50:34.841Z,2.80
2022-08-29T11:53:33.936Z,3.20
2022-08-29T11:56:28.300Z,3.10
2022-08-29T11:59:49.111Z,2.40
2022-08-29T12:02:34.028Z,2.70
2022-08-29T12:05:20.752Z,2.75
2022-08-29T12:08:36.106Z,2.72
2022-08-29T12:11:22.789Z,2.30
2022-08-29T12:14:08.240Z,3.65
2022-08-29T12:16:53.474Z,2.92
2022-08-29T12:19:57.198Z,2.33
2022-08-29T12:22:59.535Z,2.55
2022-08-29T12:26:09.579Z,2.70
2022-08-29T12:29:01.666Z,2.30
2022-08-29T12:32:23.447Z,2.15
2022-08-29T12:35:27.865Z,2.65
2022-08-29T12:38:40.081Z,2.42
2022-08-29T12:42:06.544Z,2.38
2022-08-29T12:45:05.957Z,2.22
2022-08-29T12:47:57.348Z,1.98
2022-08-29T12:50:45.275Z,2.13
2022-08-29T12:53:34.816Z,2.67
2022-08-29T12:56:22.394Z,2.35
2022-08-29T12:59:15.066Z,2.25
2022-08-29T13:02:00.750Z,2.30
2022-08-29T13:04:46.356Z,2.25
2022-08-29T13:07:31.642Z,2.38
2022-08-29T13:10:19.022Z,2.83
2022-08-29T13:13:12.955Z,2.20
2022-08-29T13:16:01.436Z,2.03
2022-08-29T13:19:00.661Z,2.65
2022-08-29T13:22:03.101Z,1.73
2022-08-29T13:24:48.198Z,2.15
2022-08-29T13:27:33.651Z,2.35
2022-08-29T13:30:23.631Z,2.88
2022-08-29T13:33:34.631Z,2.40
2022-08-29T13:36:44.731Z,2.60
2022-08-29T13:39:41.399Z,2.25
2022-08-29T13:42:31.091Z,2.22
2022-08-29T13:45:21.752Z,2.38
2022-08-29T13:48:20.159Z,1.95
2022-08-29T13:51:06.856Z,2.60
2022-08-29T13:53:52.804Z,2.47
2022-08-29T13:59:32.080Z,2.25
2022-08-29T14:02:21.291Z,2.22
2022-08-29T14:05:07.595Z,2.15
2022-08-29T14:07:52.923Z,1.80
2022-08-29T14:10:39.119Z,2.10
2022-08-29T14:13:24.594Z,1.80
2022-08-29T14:16:13.805Z,2.30
2022-08-29T14:18:58.855Z,2.55
2022-08-29T14:21:44.320Z,2.42
2022-08-29T14:24:31.458Z,2.22
2022-08-29T14:27:16.531Z,2.40
2022-08-29T14:30:03.776Z,2.47
2022-08-29T14:32:49.417Z,2.00
2022-08-29T14:35:34.911Z,2.60
2022-08-29T14:38:20.155Z,2.42
2022-08-29T14:41:05.587Z,2.42
2022-08-29T14:43:51.107Z,2.45
2022-08-29T14:46:36.578Z,2.53
2022-08-29T14:49:23.068Z,2.30
2022-08-29T14:52:08.644Z,2.30
2022-08-29T14:54:53.963Z,2.28
2022-08-29T14:57:39.451Z,2.47
2022-08-29T15:00:28.467Z,1.98
2022-08-29T15:03:14.039Z,2.33
2022-08-29T15:05:59.543Z,2.40
2022-08-29T15:08:45.249Z,2.53
2022-08-29T15:11:31.303Z,2.40
2022-08-29T15:14:16.605Z,2.15
2022-08-29T15:17:03.245Z,2.58
2022-08-29T15:22:54.670Z,2.22
2022-08-29T15:25:39.812Z,2.65
2022-08-29T15:28:37.246Z,2.47
2022-08-29T15:31:22.734Z,2.72
2022-08-29T15:34:07.967Z,2.33
2022-08-29T15:36:55.121Z,2.53
2022-08-29T15:39:40.949Z,2.20
2022-08-29T15:42:30.278Z,2.22
2022-08-29T15:45:15.668Z,2.22
2022-08-29T15:48:02.272Z,2.55
2022-08-29T15:50:50.770Z,2.30
2022-08-29T15:53:36.115Z,2.20
2022-08-29T15:56:21.384Z,1.95
2022-08-29T15:59:08.952Z,2.03
2022-08-29T16:01:54.991Z,2.65
2022-08-29T16:04:44.676Z,2.30
2022-08-29T16:07:29.900Z,2.63
2022-08-29T16:10:15.900Z,2.55
2022-08-29T16:13:01.260Z,2.40
2022-08-29T16:15:48.949Z,2.97
2022-08-29T16:18:34.493Z,2.63
2022-08-29T16:21:21.321Z,2.03
2022-08-29T16:24:07.632Z,2.53
2022-08-29T16:26:53.337Z,3.10
2022-08-29T16:29:39.603Z,2.38
2022-08-29T16:32:25.132Z,2.13
2022-08-29T16:35:11.737Z,2.28
2022-08-29T16:38:02.212Z,2.00
2022-08-29T16:40:48.649Z,2.30
2022-08-29T16:43:34.224Z,2.30
2022-08-29T16:46:21.651Z,2.38
2022-08-29T16:49:07.947Z,2.28
2022-08-29T16:51:53.133Z,2.95
2022-08-29T16:54:38.639Z,2.20
2022-08-29T16:57:24.615Z,2.40
2022-08-29T17:00:11.864Z,2.63
2022-08-29T17:02:57.271Z,2.08
2022-08-29T17:05:42.447Z,2.55
2022-08-29T17:08:27.658Z,2.40
2022-08-29T17:11:13.330Z,2.40
2022-08-29T17:13:58.608Z,2.25
2022-08-29T17:16:45.836Z,2.33
2022-08-29T17:19:33.331Z,1.98
2022-08-29T17:22:19.353Z,2.25
2022-08-29T17:25:05.281Z,2.20
2022-08-29T17:28:14.073Z,2.30
2022-08-29T17:30:57.309Z,2.33
2022-08-29T17:33:43.643Z,2.63
2022-08-29T17:36:29.093Z,2.25
2022-08-29T17:39:14.460Z,2.03
2022-08-29T17:42:00.094Z,2.08
2022-08-29T17:44:47.551Z,2.15
2022-08-29T17:47:32.875Z,2.33
2022-08-29T17:50:18.476Z,2.03
2022-08-29T17:53:04.203Z,2.53
2022-08-29T17:55:51.031Z,1.83
2022-08-29T17:58:36.305Z,2.10
2022-08-29T18:01:21.761Z,3.22
2022-08-29T18:04:07.027Z,2.50
2022-08-29T18:06:53.640Z,2.60
2022-08-29T18:09:39.027Z,2.38
2022-08-29T18:12:25.483Z,2.00
2022-08-29T18:15:12.134Z,2.30
2022-08-29T18:17:57.253Z,2.60
2022-08-29T18:20:42.684Z,2.25
2022-08-29T18:23:28.209Z,2.75
2022-08-29T18:26:14.553Z,2.38
2022-08-29T18:28:59.831Z,2.55
2022-08-29T18:31:45.244Z,2.28
2022-08-29T18:34:30.794Z,2.83
2022-08-29T18:37:16.192Z,2.45
2022-08-29T18:40:02.522Z,2.45
2022-08-29T18:42:48.375Z,2.45
2022-08-29T18:45:33.914Z,3.00
2022-08-29T18:48:19.796Z,3.30
2022-08-29T18:51:05.616Z,2.78
2022-08-29T18:53:50.719Z,2.90
2022-08-29T18:56:36.679Z,2.30
2022-08-29T18:59:23.948Z,2.92
2022-08-29T19:02:11.708Z,2.95
2022-08-29T19:04:56.993Z,2.75
2022-08-29T19:07:42.807Z,2.42
2022-08-29T19:10:29.593Z,3.17
2022-08-29T19:13:15.485Z,2.15
2022-08-29T19:16:03.250Z,2.47
2022-08-29T19:18:48.696Z,2.42
2022-08-29T19:21:34.929Z,2.40
2022-08-29T19:24:20.116Z,2.63
2022-08-29T19:27:05.489Z,2.70
2022-08-29T19:29:51.160Z,2.40
2022-08-29T19:32:39.467Z,2.60
2022-08-29T19:35:25.170Z,2.60
2022-08-29T19:38:10.279Z,2.25
2022-08-29T19:40:57.098Z,2.42
2022-08-29T19:43:43.523Z,2.90
2022-08-29T19:46:29.141Z,2.50
2022-08-29T19:49:14.641Z,2.30
2022-08-29T19:52:00.352Z,2.60
2022-08-29T19:54:46.521Z,2.50
2022-08-29T19:57:31.724Z,2.63
2022-08-29T20:00:19.842Z,2.40
2022-08-29T20:03:06.512Z,2.42
2022-08-29T20:05:51.767Z,2.97
2022-08-29T20:08:42.840Z,2.65
2022-08-29T20:11:29.280Z,2.58
2022-08-29T20:14:14.718Z,2.10
2022-08-29T20:17:07.518Z,3.10
2022-08-29T20:19:54.715Z,2.72
2022-08-29T20:22:40.353Z,2.40
2022-08-29T20:25:29.126Z,2.70
2022-08-29T20:28:15.928Z,2.95
2022-08-29T20:31:01.912Z,2.83
2022-08-29T20:33:48.796Z,2.33
2022-08-29T20:36:53.631Z,2.40
2022-08-29T20:39:48.668Z,2.90
2022-08-29T20:42:34.132Z,2.65
2022-08-29T20:45:19.414Z,2.35
2022-08-29T20:48:05.100Z,2.38
2022-08-29T20:51:01.155Z,2.70
2022-08-29T20:53:46.264Z,2.33
2022-08-29T20:56:31.857Z,2.83
2022-08-29T20:59:17.797Z,3.25
2022-08-29T21:02:03.861Z,2.65
2022-08-29T21:05:08.026Z,2.70
2022-08-29T21:07:53.476Z,2.65
2022-08-29T21:10:39.237Z,2.47
2022-08-29T21:13:25.014Z,2.15
2022-08-29T21:16:11.046Z,2.25
2022-08-29T21:18:56.571Z,2.38
2022-08-29T21:21:42.392Z,2.47
2022-08-29T21:24:29.484Z,2.55
2022-08-29T21:27:14.940Z,2.45
2022-08-29T21:30:00.172Z,2.40
2022-08-29T21:32:45.653Z,2.80
2022-08-29T21:35:31.157Z,2.40
2022-08-29T21:38:16.542Z,2.20
2022-08-29T21:41:03.017Z,2.92
2022-08-29T21:43:48.814Z,2.25
2022-08-29T21:46:43.009Z,2.22
2022-08-29T21:49:30.477Z,2.22
2022-08-29T21:52:15.926Z,2.72
2022-08-29T21:55:01.911Z,2.33
2022-08-29T21:57:59.505Z,2.35
2022-08-29T22:00:45.167Z,3.00
2022-08-29T22:03:30.926Z,2.38
2022-08-29T22:06:18.068Z,2.50
2022-08-29T22:09:04.967Z,2.38
2022-08-29T22:11:53.634Z,2.30
2022-08-29T22:14:57.255Z,2.33
2022-08-29T22:17:42.681Z,2.60
2022-08-29T22:20:28.215Z,2.42
2022-08-29T22:23:15.652Z,2.55
2022-08-29T22:26:05.242Z,2.30
2022-08-29T22:28:50.949Z,2.70
2022-08-29T22:31:36.603Z,2.70
2022-08-29T22:34:21.885Z,2.83
2022-08-29T22:37:07.180Z,3.33
2022-08-29T22:39:52.697Z,2.33
2022-08-29T22:42:38.617Z,2.67
2022-08-29T22:45:24.159Z,2.50
2022-08-29T22:48:10.817Z,2.42
2022-08-29T22:50:58.774Z,3.25
2022-08-29T22:54:04.971Z,2.67
2022-08-29T22:56:50.295Z,2.42
2022-08-29T22:59:41.560Z,2.50
2022-08-29T23:02:26.735Z,2.53
2022-08-29T23:05:12.152Z,3.22
2022-08-29T23:07:57.968Z,2.30
2022-08-29T23:10:45.009Z,2.60
2022-08-29T23:13:34.808Z,1.90
2022-08-29T23:16:23.123Z,2.50
2022-08-29T23:19:08.786Z,2.00
2022-08-29T23:21:54.139Z,2.30
2022-08-29T23:24:41.559Z,2.20
2022-08-29T23:27:39.400Z,2.40
2022-08-29T23:30:24.665Z,2.72
2022-08-29T23:33:10.124Z,2.42
2022-08-29T23:35:55.823Z,2.78
2022-08-29T23:38:40.917Z,2.72
2022-08-29T23:41:26.791Z,2.60
2022-08-29T23:44:12.290Z,2.55
2022-08-29T23:46:57.869Z,2.67
2022-08-29T23:49:42.967Z,2.40
2022-08-29T23:52:28.328Z,2.67
2022-08-29T23:55:16.408Z,2.50
2022-08-29T23:58:01.583Z,2.65
